首页
METAR-TAF:

METAR-TAF

机场 :

Diepholz, 德国

纬度: 52-35N, 经度: 008-21E, 海拔: 39米

当前天气观测

该预报发布于12小时和2分钟前的13:20 UTC
风速9节,风向
温度 23°C
湿度 31%
气压 1019 hPa
能见度10公里或以上

METAR: ETND 061320Z 18009KT 9999 23/05 Q1019 BLU+

时间: 03:22 (01:22 UTC)

预报

该预报发布于11小时和52分钟前的13:30 UTC
预报有效从06日的 13点(UTC)到 06日的 20点(UTC)
风速8节,风向
能見度: 1330
天空无云

TAF: ETND 061330Z 0613/0620 19008KT 9999 NSW SKC CANCEL 1330 BY ETGL

超过4000个机场的气象观测和天气预报(METAR&TAF报告)。

可查询的气象台以黄色和红色小点在地图上表示。

将鼠标移到小点上方,可查看气象台名称。

然后点击查看天气观测和预报。

如需切换地图:点击带黑十字的绿色按钮放大地图;点击带横线的绿色按钮缩小地图;或者点击绿色箭头查看邻近地区的地图。


METAR-TAF: